Terminal Aerodrome Forecast
Issued by NWS Melbourne, FL

Home | Current Version | Previous Version | Text Only | Print | Product List | Glossary On
Versions: 1 2 3 4 5 6 7 8 9 10 11 12
000
FTUS42 KMLB 301100
TAFDAB
TAF
KDAB 301140Z 3012/3112 25004KT P6SM BKN250
     FM301400 29010KT P6SM BKN040
      TEMPO 3016/3018 BKN035
     FM301800 35014G22KT P6SM SCT035 BKN120
     FM310100 36005KT P6SM SCT250=

USA.gov is the U.S. government's official web portal to all federal, state and local government web resources and services.